Bristol, United Kingdom
Current Conditions -  °F | °C
As of 12:20 PM on Thursday 29 Jan 2015 (Local Time) from EGGD Reporting Station
Rain Showers Rain Showers  
Wind Chill: 29°   Ceiling: Unl
Heat Index: 37°   Visibility: 6mi
Dew Point: 34°   Wind: 14mph
Humidity: 87%   Direction: 250°WSW
Pressure: 29.03"   Gusts: NA
Location:  51.46°N, 2.59°W
Report Text: EGGD 291220Z 25012KT 9999 VCSH FEW005 SCT021 03/01 Q0983
Loading
Personal Weather Stations






























Interactive Weather Map New forecast layout! Learn more

10-Day Weather Forecast

Advertisements
Track Severe Weather on mobile